createdAt,value
2023-03-02T00:01:30.772Z,100924.78
2023-03-02T00:04:00.195Z,100918.47
2023-03-02T00:06:30.033Z,100926.53
2023-03-02T00:09:02.035Z,100932.72
2023-03-02T00:11:31.712Z,100913.25
2023-03-02T00:13:59.160Z,100907.06
2023-03-02T00:16:26.639Z,100914.13
2023-03-02T00:18:53.952Z,100914.09
2023-03-02T00:21:21.333Z,100911.44
2023-03-02T00:23:48.646Z,100910.53
2023-03-02T00:26:15.969Z,100914.97
2023-03-02T00:28:43.374Z,100910.47
2023-03-02T00:31:12.223Z,100915.78
2023-03-02T00:33:39.562Z,100907.69
2023-03-02T00:36:14.112Z,100913.91
2023-03-02T00:38:41.427Z,100905.16
2023-03-02T00:41:08.810Z,100908.72
2023-03-02T00:43:36.209Z,100899.78
2023-03-02T00:46:22.308Z,100898.06
2023-03-02T00:48:50.675Z,100900.63
2023-03-02T00:51:18.463Z,100900.66
2023-03-02T00:53:46.277Z,100908.47
2023-03-02T00:56:13.625Z,100905.06
2023-03-02T00:58:46.645Z,100909.50
2023-03-02T01:01:15.733Z,100904.16
2023-03-02T01:03:47.034Z,100897.06
2023-03-02T01:06:18.190Z,100903.25
2023-03-02T01:08:45.854Z,100897.97
2023-03-02T01:11:19.005Z,100886.47
2023-03-02T01:13:46.496Z,100885.53
2023-03-02T01:16:14.733Z,100881.91
2023-03-02T01:18:42.248Z,100873.16
2023-03-02T01:21:13.571Z,100878.47
2023-03-02T01:23:42.157Z,100879.28
2023-03-02T01:26:09.952Z,100868.66
2023-03-02T01:28:37.439Z,100872.09
2023-03-02T01:31:05.075Z,100867.59
2023-03-02T01:33:32.865Z,100872.97
2023-03-02T01:36:00.643Z,100862.28
2023-03-02T01:38:28.788Z,100860.44
2023-03-02T01:40:56.616Z,100864.00
2023-03-02T01:43:24.208Z,100861.28
2023-03-02T01:45:59.473Z,100862.13
2023-03-02T01:48:43.011Z,100863.88
2023-03-02T01:51:14.851Z,100859.38
2023-03-02T01:53:46.881Z,100856.72
2023-03-02T01:56:21.719Z,100848.00
2023-03-02T01:58:52.934Z,100846.28
2023-03-02T02:01:21.913Z,100851.63
2023-03-02T02:03:50.996Z,100848.16
2023-03-02T02:06:24.411Z,100846.38
2023-03-02T02:08:56.099Z,100847.41
2023-03-02T02:11:24.681Z,100843.00
2023-03-02T02:13:58.976Z,100829.06
2023-03-02T02:16:28.807Z,100836.97
2023-03-02T02:18:56.431Z,100843.22
2023-03-02T02:21:26.144Z,100843.28
2023-03-02T02:24:14.172Z,100837.97
2023-03-02T02:26:56.299Z,100845.91
2023-03-02T02:29:34.641Z,100844.25
2023-03-02T02:32:23.557Z,100855.00
2023-03-02T02:34:56.853Z,100832.09
2023-03-02T02:37:32.967Z,100842.66
2023-03-02T02:40:07.474Z,100842.69
2023-03-02T02:42:40.824Z,100835.75
2023-03-02T02:45:20.915Z,100825.31
2023-03-02T02:47:49.635Z,100836.88
2023-03-02T02:50:20.968Z,100839.44
2023-03-02T02:52:55.509Z,100837.75
2023-03-02T02:55:24.597Z,100850.13
2023-03-02T02:57:56.444Z,100834.31
2023-03-02T03:00:24.206Z,100839.63
2023-03-02T03:03:06.448Z,100840.50
2023-03-02T03:05:33.798Z,100837.75
2023-03-02T03:08:09.859Z,100837.81
2023-03-02T03:10:41.038Z,100836.97
2023-03-02T03:13:11.491Z,100834.28
2023-03-02T03:15:39.361Z,100839.69
2023-03-02T03:18:06.738Z,100835.19
2023-03-02T03:20:34.152Z,100846.72
2023-03-02T03:23:01.561Z,100847.59
2023-03-02T03:25:32.152Z,100844.94
2023-03-02T03:28:00.275Z,100848.50
2023-03-02T03:30:27.689Z,100847.69
2023-03-02T03:32:55.462Z,100851.13
2023-03-02T03:35:23.062Z,100844.13
2023-03-02T03:37:51.735Z,100848.53
2023-03-02T03:40:20.096Z,100854.78
2023-03-02T03:42:48.431Z,100852.28
2023-03-02T03:45:15.879Z,100855.78
2023-03-02T03:47:44.738Z,100851.38
2023-03-02T03:50:12.719Z,100850.66
2023-03-02T03:52:41.068Z,100848.69
2023-03-02T03:55:14.289Z,100850.50
2023-03-02T03:57:43.559Z,100843.41
2023-03-02T04:00:17.395Z,100854.13
2023-03-02T04:02:53.274Z,100845.25
2023-03-02T04:05:21.368Z,100844.41
2023-03-02T04:07:51.996Z,100840.03
2023-03-02T04:10:20.119Z,100844.50
2023-03-02T04:12:48.339Z,100846.25
2023-03-02T04:15:16.772Z,100846.28
2023-03-02T04:17:45.980Z,100847.22
2023-03-02T04:20:16.935Z,100845.47
2023-03-02T04:22:49.961Z,100848.13
2023-03-02T04:25:20.254Z,100853.50
2023-03-02T04:27:49.964Z,100853.50
2023-03-02T04:30:20.221Z,100853.53
2023-03-02T04:32:47.929Z,100853.50
2023-03-02T04:35:16.171Z,100856.09
2023-03-02T04:37:44.688Z,100859.63
2023-03-02T04:40:12.907Z,100850.97
2023-03-02T04:42:40.305Z,100859.75
2023-03-02T04:45:09.151Z,100852.72
2023-03-02T04:47:36.479Z,100862.47
2023-03-02T04:50:04.243Z,100856.31
2023-03-02T04:52:31.653Z,100854.53
2023-03-02T04:54:59.018Z,100859.84
2023-03-02T04:57:26.428Z,100854.59
2023-03-02T04:59:53.724Z,100862.53
2023-03-02T05:02:21.057Z,100854.59
2023-03-02T05:04:48.378Z,100856.34
2023-03-02T05:07:15.748Z,100860.75
2023-03-02T05:09:43.122Z,100847.53
2023-03-02T05:12:13.641Z,100842.31
2023-03-02T05:14:41.201Z,100850.28
2023-03-02T05:17:08.680Z,100858.19
2023-03-02T05:19:36.046Z,100858.09
2023-03-02T05:22:03.456Z,100853.00
2023-03-02T05:24:30.905Z,100849.56
2023-03-02T05:26:58.303Z,100854.03
2023-03-02T05:29:25.725Z,100860.09
2023-03-02T05:31:53.380Z,100857.47
2023-03-02T05:34:21.076Z,100870.63
2023-03-02T05:36:48.588Z,100868.88
2023-03-02T05:39:16.022Z,100866.19
2023-03-02T05:41:43.531Z,100868.03
2023-03-02T05:44:12.591Z,100863.72
2023-03-02T05:46:40.361Z,100865.38
2023-03-02T05:49:07.788Z,100867.09
2023-03-02T05:51:35.236Z,100872.44
2023-03-02T05:54:02.570Z,100862.00
2023-03-02T05:56:30.291Z,100877.69
2023-03-02T05:58:57.853Z,100880.34
2023-03-02T06:01:25.333Z,100888.25
2023-03-02T06:03:52.776Z,100868.03
2023-03-02T06:06:20.169Z,100882.03
2023-03-02T06:08:47.608Z,100874.16
2023-03-02T06:11:15.022Z,100879.44
2023-03-02T06:13:42.442Z,100873.22
2023-03-02T06:16:09.944Z,100891.69
2023-03-02T06:18:40.356Z,100893.47
2023-03-02T06:21:09.258Z,100896.09
2023-03-02T06:23:36.642Z,100881.13
2023-03-02T06:26:09.390Z,100896.94
2023-03-02T06:28:49.618Z,100893.44
2023-03-02T06:31:17.535Z,100875.84
2023-03-02T06:33:44.896Z,100881.09
2023-03-02T06:36:12.750Z,100887.22
2023-03-02T06:38:40.283Z,100896.03
2023-03-02T06:41:07.640Z,100903.09
2023-03-02T06:43:35.173Z,100887.16
2023-03-02T06:46:02.847Z,100891.66
2023-03-02T06:48:30.329Z,100886.38
2023-03-02T06:50:57.797Z,100888.22
2023-03-02T06:53:25.138Z,100903.97
2023-03-02T06:55:52.969Z,100910.13
2023-03-02T06:58:20.437Z,100900.53
2023-03-02T07:00:47.920Z,100909.22
2023-03-02T07:03:15.472Z,100900.56
2023-03-02T07:05:45.729Z,100905.72
2023-03-02T07:08:14.132Z,100917.94
2023-03-02T07:10:41.710Z,100895.91
2023-03-02T07:13:09.482Z,100908.16
2023-03-02T07:15:39.640Z,100912.53
2023-03-02T07:18:07.237Z,100919.56
2023-03-02T07:20:34.835Z,100914.38
2023-03-02T07:23:02.162Z,100910.78
2023-03-02T07:25:29.501Z,100917.81
2023-03-02T07:27:56.841Z,100917.75
2023-03-02T07:30:24.418Z,100915.00
2023-03-02T07:32:51.762Z,100915.78
2023-03-02T07:35:19.191Z,100922.00
2023-03-02T07:37:46.515Z,100930.75
2023-03-02T07:40:14.282Z,100924.53
2023-03-02T07:42:41.631Z,100929.00
2023-03-02T07:45:11.449Z,100923.66
2023-03-02T07:47:38.709Z,100931.47
2023-03-02T07:50:06.561Z,100934.19
2023-03-02T07:52:33.898Z,100935.88
2023-03-02T07:55:01.230Z,100935.81
2023-03-02T07:57:28.545Z,100940.25
2023-03-02T07:59:55.871Z,100928.66
2023-03-02T08:02:25.784Z,100932.97
2023-03-02T08:04:53.425Z,100931.97
2023-03-02T08:07:22.094Z,100937.06
2023-03-02T08:09:49.502Z,100933.53
2023-03-02T08:12:17.642Z,100930.94
2023-03-02T08:14:47.663Z,100918.50
2023-03-02T08:17:14.997Z,100933.38
2023-03-02T08:19:42.335Z,100922.59
2023-03-02T08:22:09.648Z,100918.78
2023-03-02T08:24:37.609Z,100906.81
2023-03-02T08:27:05.111Z,100911.28
2023-03-02T08:29:32.672Z,100905.13
2023-03-02T08:32:00.609Z,100904.78
2023-03-02T08:34:28.187Z,100906.03
2023-03-02T08:36:55.601Z,100909.03
2023-03-02T08:39:23.652Z,100888.56
2023-03-02T08:41:52.373Z,100906.00
2023-03-02T08:44:22.316Z,100907.56
2023-03-02T08:46:50.741Z,100912.09
2023-03-02T08:49:19.556Z,100899.44
2023-03-02T08:51:49.083Z,100898.50
2023-03-02T08:54:16.453Z,100904.16
2023-03-02T08:56:44.581Z,100908.25
2023-03-02T08:59:13.476Z,100910.28
2023-03-02T09:01:41.827Z,100914.44
2023-03-02T09:04:10.648Z,100919.09
2023-03-02T09:06:43.427Z,100902.22
2023-03-02T09:09:12.671Z,100922.31
2023-03-02T09:11:40.608Z,100902.88
2023-03-02T09:14:08.402Z,100902.84
2023-03-02T09:16:35.865Z,100906.47
2023-03-02T09:19:03.379Z,100909.28
2023-03-02T09:21:31.003Z,100913.16
2023-03-02T09:23:58.660Z,100915.16
2023-03-02T09:26:27.087Z,100908.13
2023-03-02T09:28:55.235Z,100908.81
2023-03-02T09:31:23.026Z,100907.50
2023-03-02T09:33:50.609Z,100915.31
2023-03-02T09:36:23.695Z,100902.50
2023-03-02T09:38:51.245Z,100908.78
2023-03-02T09:41:21.975Z,100921.06
2023-03-02T09:44:23.808Z,100920.38
2023-03-02T09:46:56.235Z,100925.94
2023-03-02T09:49:32.540Z,100917.88
2023-03-02T09:52:14.874Z,100921.38
2023-03-02T09:54:42.921Z,100930.66
2023-03-02T09:57:43.062Z,100930.47
2023-03-02T10:00:19.149Z,100931.38
2023-03-02T10:03:11.407Z,100931.16
2023-03-02T10:05:46.301Z,100938.28
2023-03-02T10:08:36.537Z,100931.97
2023-03-02T10:11:37.502Z,100920.47
2023-03-02T10:14:18.168Z,100934.38
2023-03-02T10:16:49.763Z,100938.03
2023-03-02T10:19:32.427Z,100927.34
2023-03-02T10:22:27.118Z,100935.59
2023-03-02T10:25:34.210Z,100940.00
2023-03-02T10:28:20.191Z,100925.69
2023-03-02T10:31:36.917Z,100941.50
2023-03-02T10:34:04.330Z,100938.28
2023-03-02T10:36:40.940Z,100936.63
2023-03-02T10:39:14.255Z,100920.09
2023-03-02T10:41:47.246Z,100926.88
2023-03-02T10:44:21.910Z,100936.00
2023-03-02T10:46:49.342Z,100926.78
2023-03-02T10:49:39.431Z,100931.88
2023-03-02T10:52:14.620Z,100915.19
2023-03-02T10:54:42.682Z,100920.19
2023-03-02T10:57:21.862Z,100932.72
2023-03-02T10:59:51.986Z,100904.34
2023-03-02T11:02:23.221Z,100923.59
2023-03-02T11:05:20.789Z,100916.59
2023-03-02T11:07:56.360Z,100927.13
2023-03-02T11:10:27.588Z,100918.34
2023-03-02T11:12:55.268Z,100902.94
2023-03-02T11:15:45.846Z,100915.09
2023-03-02T11:18:32.005Z,100918.53
2023-03-02T11:21:04.636Z,100923.19
2023-03-02T11:23:43.882Z,100928.50
2023-03-02T11:26:18.104Z,100918.81
2023-03-02T11:28:51.458Z,100913.66
2023-03-02T11:31:26.468Z,100914.41
2023-03-02T11:34:17.297Z,100913.69
2023-03-02T11:36:57.756Z,100919.03
2023-03-02T11:39:53.329Z,100921.41
2023-03-02T11:42:30.877Z,100907.53
2023-03-02T11:45:03.879Z,100915.56
2023-03-02T11:47:32.877Z,100906.88
2023-03-02T11:50:07.599Z,100903.38
2023-03-02T11:52:39.019Z,100903.25
2023-03-02T11:55:18.446Z,100903.25
2023-03-02T11:57:52.275Z,100900.34
2023-03-02T12:00:39.230Z,100889.91
2023-03-02T12:03:15.590Z,100891.38
2023-03-02T12:05:45.767Z,100889.63
2023-03-02T12:08:18.986Z,100886.91
2023-03-02T12:11:18.758Z,100882.28
2023-03-02T12:13:59.124Z,100883.00
2023-03-02T12:16:32.769Z,100879.34
2023-03-02T12:19:16.617Z,100881.50
2023-03-02T12:21:58.097Z,100872.75
2023-03-02T12:24:31.214Z,100873.13
2023-03-02T12:27:08.163Z,100872.16
2023-03-02T12:29:48.060Z,100877.97
2023-03-02T12:32:27.418Z,100871.44
2023-03-02T12:35:03.064Z,100863.97
2023-03-02T12:37:44.853Z,100863.53
2023-03-02T12:40:30.547Z,100855.25
2023-03-02T12:43:16.274Z,100848.06
2023-03-02T12:45:57.787Z,100852.09
2023-03-02T12:48:30.389Z,100854.78
2023-03-02T12:51:04.103Z,100854.00
2023-03-02T12:53:32.159Z,100859.81
2023-03-02T12:55:59.558Z,100843.16
2023-03-02T12:58:28.893Z,100845.91
2023-03-02T13:01:00.228Z,100851.03
2023-03-02T13:03:30.228Z,100848.28
2023-03-02T13:06:13.495Z,100846.63
2023-03-02T13:08:44.693Z,100854.31
2023-03-02T13:11:12.511Z,100842.75
2023-03-02T13:13:45.230Z,100843.56
2023-03-02T13:16:24.521Z,100843.47
2023-03-02T13:18:57.598Z,100833.66
2023-03-02T13:21:32.544Z,100836.28
2023-03-02T13:24:01.318Z,100835.31
2023-03-02T13:26:34.978Z,100838.06
2023-03-02T13:29:14.738Z,100837.09
2023-03-02T13:31:42.701Z,100830.88
2023-03-02T13:34:27.721Z,100825.81
2023-03-02T13:36:55.392Z,100827.72
2023-03-02T13:39:28.896Z,100814.53
2023-03-02T13:41:58.989Z,100824.91
2023-03-02T13:44:32.069Z,100825.25
2023-03-02T13:47:00.497Z,100821.44
2023-03-02T13:49:35.942Z,100818.91
2023-03-02T13:52:08.419Z,100815.25
2023-03-02T13:54:37.701Z,100815.06
2023-03-02T13:57:06.290Z,100811.59
2023-03-02T13:59:36.451Z,100819.72
2023-03-02T14:02:21.172Z,100804.53
2023-03-02T14:04:48.653Z,100802.28
2023-03-02T14:07:17.599Z,100807.81
2023-03-02T14:09:45.352Z,100801.66
2023-03-02T14:12:24.401Z,100801.38
2023-03-02T14:14:54.675Z,100799.88
2023-03-02T14:17:24.768Z,100800.59
2023-03-02T14:19:53.118Z,100803.19
2023-03-02T14:22:21.580Z,100802.84
2023-03-02T14:24:49.278Z,100812.69
2023-03-02T14:27:18.466Z,100813.50
2023-03-02T14:29:46.844Z,100806.38
2023-03-02T14:32:15.544Z,100793.97
2023-03-02T14:34:43.348Z,100798.13
2023-03-02T14:37:16.722Z,100790.94
2023-03-02T14:39:54.313Z,100790.88
2023-03-02T14:42:23.387Z,100789.09
2023-03-02T14:44:51.690Z,100791.75
2023-03-02T14:47:19.652Z,100791.59
2023-03-02T14:49:48.970Z,100788.31
2023-03-02T14:52:24.681Z,100786.09
2023-03-02T14:54:57.887Z,100785.13
2023-03-02T14:57:27.970Z,100786.09
2023-03-02T14:59:56.206Z,100780.72
2023-03-02T15:02:26.746Z,100771.75
2023-03-02T15:04:57.166Z,100774.41
2023-03-02T15:07:28.746Z,100771.28
2023-03-02T15:09:57.201Z,100776.41
2023-03-02T15:12:25.245Z,100769.63
2023-03-02T15:14:52.639Z,100775.19
2023-03-02T15:17:20.194Z,100767.66
2023-03-02T15:19:47.928Z,100768.50
2023-03-02T15:22:15.805Z,100764.28
2023-03-02T15:24:43.359Z,100761.66
2023-03-02T15:27:10.872Z,100763.63
2023-03-02T15:29:38.287Z,100765.53
2023-03-02T15:32:05.921Z,100769.09
2023-03-02T15:34:33.345Z,100763.91
2023-03-02T15:37:00.670Z,100772.06
2023-03-02T15:39:27.981Z,100767.59
2023-03-02T15:41:55.402Z,100768.59
2023-03-02T15:44:24.816Z,100768.47
2023-03-02T15:46:57.417Z,100761.94
2023-03-02T15:49:28.509Z,100764.13
2023-03-02T15:51:58.079Z,100758.34
2023-03-02T15:54:26.464Z,100764.78
2023-03-02T15:56:54.673Z,100765.00
2023-03-02T15:59:24.156Z,100767.00
2023-03-02T16:01:52.277Z,100767.06
2023-03-02T16:04:19.924Z,100770.47
2023-03-02T16:06:47.429Z,100769.66
2023-03-02T16:09:16.740Z,100771.97
2023-03-02T16:11:44.200Z,100774.97
2023-03-02T16:14:15.950Z,100778.69
2023-03-02T16:16:44.159Z,100773.41
2023-03-02T16:19:13.455Z,100773.72
2023-03-02T16:21:41.451Z,100771.72
2023-03-02T16:24:09.683Z,100786.09
2023-03-02T16:26:38.258Z,100781.59
2023-03-02T16:29:08.070Z,100772.78
2023-03-02T16:31:38.001Z,100777.44
2023-03-02T16:34:09.371Z,100769.56
2023-03-02T16:36:38.921Z,100772.47
2023-03-02T16:39:07.982Z,100788.09
2023-03-02T16:41:35.947Z,100790.00
2023-03-02T16:44:03.615Z,100787.38
2023-03-02T16:46:36.384Z,100783.97
2023-03-02T16:49:04.931Z,100795.50
2023-03-02T16:51:32.790Z,100785.63
2023-03-02T16:54:00.887Z,100791.91
2023-03-02T16:56:47.613Z,100784.03
2023-03-02T16:59:15.492Z,100790.41
2023-03-02T17:01:48.561Z,100790.38
2023-03-02T17:04:18.428Z,100786.16
2023-03-02T17:06:59.933Z,100783.66
2023-03-02T17:09:28.398Z,100787.28
2023-03-02T17:11:56.539Z,100782.06
2023-03-02T17:14:24.014Z,100791.09
2023-03-02T17:16:51.375Z,100802.78
2023-03-02T17:19:18.751Z,100800.03
2023-03-02T17:21:46.187Z,100795.75
2023-03-02T17:24:13.906Z,100800.38
2023-03-02T17:26:41.292Z,100807.25
2023-03-02T17:29:08.693Z,100797.56
2023-03-02T17:31:36.267Z,100796.75
2023-03-02T17:34:03.637Z,100808.22
2023-03-02T17:36:36.622Z,100812.81
2023-03-02T17:39:05.308Z,100815.41
2023-03-02T17:41:34.428Z,100823.63
2023-03-02T17:44:03.433Z,100824.31
2023-03-02T17:46:32.599Z,100813.84
2023-03-02T17:49:00.924Z,100831.53
2023-03-02T17:51:29.029Z,100832.50
2023-03-02T17:53:56.903Z,100830.63
2023-03-02T17:56:26.920Z,100836.00
2023-03-02T17:59:00.621Z,100837.06
2023-03-02T18:01:29.644Z,100832.63
2023-03-02T18:03:57.095Z,100855.75
2023-03-02T18:06:24.756Z,100851.47
2023-03-02T18:08:52.428Z,100848.19
2023-03-02T18:11:23.045Z,100850.75
2023-03-02T18:13:58.057Z,100849.91
2023-03-02T18:16:27.928Z,100849.88
2023-03-02T18:18:57.251Z,100854.41
2023-03-02T18:21:24.795Z,100857.13
2023-03-02T18:23:52.351Z,100852.78
2023-03-02T18:26:20.192Z,100854.66
2023-03-02T18:28:47.585Z,100851.94
2023-03-02T18:31:17.149Z,100855.50
2023-03-02T18:33:45.117Z,100855.47
2023-03-02T18:36:12.671Z,100858.25
2023-03-02T18:38:40.497Z,100861.09
2023-03-02T18:41:09.212Z,100856.59
2023-03-02T18:43:40.088Z,100861.94
2023-03-02T18:46:08.677Z,100864.50
2023-03-02T18:48:37.500Z,100861.94
2023-03-02T18:51:05.051Z,100863.72
2023-03-02T18:53:34.025Z,100864.50
2023-03-02T18:56:01.683Z,100864.06
2023-03-02T18:58:34.088Z,100865.94
2023-03-02T19:01:02.236Z,100859.53
2023-03-02T19:03:30.064Z,100864.88
2023-03-02T19:05:58.358Z,100860.41
2023-03-02T19:08:26.199Z,100864.88
2023-03-02T19:10:54.568Z,100866.59
2023-03-02T19:13:22.208Z,100866.78
2023-03-02T19:15:49.699Z,100884.38
2023-03-02T19:18:19.513Z,100866.16
2023-03-02T19:20:48.438Z,100878.34
2023-03-02T19:23:17.194Z,100876.00
2023-03-02T19:25:48.468Z,100872.50
2023-03-02T19:28:16.290Z,100861.81
2023-03-02T19:30:43.749Z,100876.84
2023-03-02T19:33:11.147Z,100877.84
2023-03-02T19:35:39.310Z,100885.81
2023-03-02T19:38:07.836Z,100882.44
2023-03-02T19:40:36.419Z,100874.66
2023-03-02T19:43:05.296Z,100884.38
2023-03-02T19:45:34.891Z,100871.41
2023-03-02T19:48:03.938Z,100884.75
2023-03-02T19:50:31.858Z,100887.66
2023-03-02T19:52:59.352Z,100897.28
2023-03-02T19:55:27.209Z,100899.91
2023-03-02T19:58:00.257Z,100893.59
2023-03-02T20:00:30.499Z,100891.06
2023-03-02T20:02:58.698Z,100893.91
2023-03-02T20:05:27.628Z,100896.63
2023-03-02T20:07:55.668Z,100896.59
2023-03-02T20:10:29.076Z,100897.44
2023-03-02T20:12:56.555Z,100901.81
2023-03-02T20:15:23.928Z,100899.25
2023-03-02T20:17:51.459Z,100897.56
2023-03-02T20:20:18.890Z,100894.25
2023-03-02T20:22:46.405Z,100913.09
2023-03-02T20:25:14.548Z,100899.06
2023-03-02T20:27:42.441Z,100914.72
2023-03-02T20:30:13.673Z,100920.06
2023-03-02T20:32:42.021Z,100920.19
2023-03-02T20:35:10.815Z,100919.34
2023-03-02T20:37:38.676Z,100910.56
2023-03-02T20:40:08.837Z,100910.78
2023-03-02T20:42:39.013Z,100914.31
2023-03-02T20:45:09.103Z,100923.09
2023-03-02T20:47:36.844Z,100931.97
2023-03-02T20:50:08.265Z,100922.38
2023-03-02T20:52:37.045Z,100926.88
2023-03-02T20:55:06.173Z,100939.16
2023-03-02T20:57:35.196Z,100928.66
2023-03-02T21:00:09.434Z,100922.47
2023-03-02T21:02:38.932Z,100943.69
2023-03-02T21:05:06.901Z,100929.63
2023-03-02T21:07:35.864Z,100947.31
2023-03-02T21:10:09.887Z,100927.03
2023-03-02T21:12:37.447Z,100927.06
2023-03-02T21:15:07.224Z,100924.38
2023-03-02T21:17:35.654Z,100927.25
2023-03-02T21:20:03.700Z,100921.03
2023-03-02T21:22:31.098Z,100917.50
2023-03-02T21:24:58.405Z,100916.72
2023-03-02T21:27:25.890Z,100917.69
2023-03-02T21:29:53.179Z,100918.69
2023-03-02T21:32:20.563Z,100921.31
2023-03-02T21:34:47.899Z,100912.59
2023-03-02T21:37:15.215Z,100915.94
2023-03-02T21:39:42.510Z,100917.81
2023-03-02T21:42:09.846Z,100932.88
2023-03-02T21:44:37.186Z,100927.63
2023-03-02T21:47:04.493Z,100928.41
2023-03-02T21:49:32.047Z,100921.31
2023-03-02T21:51:59.531Z,100920.56
2023-03-02T21:54:26.856Z,100927.59
2023-03-02T21:56:54.160Z,100921.34
2023-03-02T21:59:21.475Z,100914.25
2023-03-02T22:01:48.891Z,100910.66
2023-03-02T22:04:16.367Z,100908.97
2023-03-02T22:06:43.680Z,100913.50
2023-03-02T22:09:11.582Z,100915.47
2023-03-02T22:11:38.888Z,100909.19
2023-03-02T22:14:14.982Z,100911.78
2023-03-02T22:16:46.853Z,100911.94
2023-03-02T22:19:25.473Z,100916.38
2023-03-02T22:21:55.474Z,100911.09
2023-03-02T22:24:28.855Z,100904.16
2023-03-02T22:27:05.321Z,100903.38
2023-03-02T22:29:40.299Z,100908.69
2023-03-02T22:32:23.155Z,100905.97
2023-03-02T22:34:56.487Z,100905.97
2023-03-02T22:37:27.025Z,100899.88
2023-03-02T22:40:01.357Z,100899.75
2023-03-02T22:42:31.482Z,100895.44
2023-03-02T22:44:58.808Z,100895.34
2023-03-02T22:47:27.168Z,100900.69
2023-03-02T22:50:00.394Z,100899.75
2023-03-02T22:52:37.093Z,100899.06
2023-03-02T22:55:36.263Z,100890.19
2023-03-02T22:58:36.387Z,100889.19
2023-03-02T23:01:18.028Z,100894.41
2023-03-02T23:03:47.138Z,100883.75
2023-03-02T23:06:33.024Z,100896.16
2023-03-02T23:09:06.648Z,100876.91
2023-03-02T23:11:38.231Z,100887.53
2023-03-02T23:14:37.902Z,100906.16
2023-03-02T23:17:14.067Z,100898.28
2023-03-02T23:19:41.458Z,100903.56
2023-03-02T23:22:09.193Z,100902.69
2023-03-02T23:24:37.043Z,100889.34
2023-03-02T23:27:04.496Z,100889.47
2023-03-02T23:29:32.100Z,100901.81
2023-03-02T23:31:59.633Z,100875.41
2023-03-02T23:34:31.002Z,100884.19
2023-03-02T23:36:59.574Z,100883.28
2023-03-02T23:39:27.204Z,100878.84
2023-03-02T23:41:54.965Z,100893.84
2023-03-02T23:44:22.376Z,100881.50
2023-03-02T23:46:50.179Z,100882.41
2023-03-02T23:49:19.159Z,100876.25
2023-03-02T23:51:46.899Z,100886.84
2023-03-02T23:54:15.035Z,100886.84
2023-03-02T23:56:42.369Z,100879.84
2023-03-02T23:59:09.920Z,100877.22
